Search found 7 matches

by JeV
09 Jan 2010, 15:20
Forum: Bug reports
Topic: [FIXED] Runway surface conditions
Replies: 2
Views: 9332

Re: [FIXED] Runway surface conditions

Hello. Please check this: METAR: EPWA 220830Z 14004KT 110V190 0900 R33/0900V1300D R29/0900N FG BKN001 06/06 Q1018 BECMG 1500 gives output: [this is][Warsaw][information]C[observation at]0830[expect]U[arrival runway]33[ILS/DME][approach][departures runway]29[transition level]80[wind]140[degrees]4[kno...
by JeV
07 Feb 2009, 10:15
Forum: Bug reports
Topic: [FIXED] Vertical visibilisty not extracted
Replies: 1
Views: 3535

[FIXED] Vertical visibilisty not extracted

Hi! VV002 is not extracted from METAR correctly, would you check :)? EPGD 070830Z 14004KT 110V180 0100 R29/0250 FG VV002 01/00 Q0992 http://www.uniatis.net/atis.php?depfr=128.8&apptype=ILS/DME&arr=29&dep=29&info=W&metar=EPGD%20070830Z%2014004KT%20110V180%200100%20R29/0250%20FG%20VV002%2001/00%20Q099...
by JeV
21 May 2008, 09:42
Forum: Configuration help
Topic: Warsaw Okęcie [EPWA] ATIS
Replies: 4
Views: 11673

Re: Warsaw Okęcie [EPWA] ATIS

Hm, it should be part of the e-mail with your account information...
by JeV
09 Apr 2008, 19:36
Forum: Suggestions
Topic: Transition Level
Replies: 6
Views: 10030

Re: Transition Level

Sami Ylismäki wrote:The problem here is that EUS only supplies the METAR of ATIS airport and that's the only source of external information for the generator.

What about defining airports here in configuration :)? I am sure you can get METAR for listed ICAOs and filter QNH from them.
by JeV
09 Apr 2008, 16:25
Forum: Suggestions
Topic: Transition Level
Replies: 6
Views: 10030

Transition Level

Hi! Currently TL changes when QNH changes for particular airport METAR. Example - Poland In general TL80 when QNH <= 995 TL90 But it should change into TL90 if any METAR for Warszawa FIR (Poland) (I think there are nine) shows 995 or less. So... you know what's my idea :) Cheers! Marcin [PS. Can you...
by JeV
09 Apr 2008, 16:19
Forum: Suggestions
Topic: Approach type
Replies: 0
Views: 4240

Approach type

Currently it's implemented as constant in URL. I would suggest sth like that: (example Warsaw - Okęcie) Definition of runways and major approach types somewhere in configuration: EPWA - 33:11 - ILS_DME EPWA - 29:15 - VOR_DME Then I put for example apptype=AUTO and type of approach is taken from conf...
by JeV
06 Apr 2008, 18:20
Forum: Configuration help
Topic: Warsaw Okęcie [EPWA] ATIS
Replies: 4
Views: 11673

Warsaw Okęcie [EPWA] ATIS

Hi!
Before I start configuring anything... where should I begin? How can I prepare ATIS decoding format for our airport?


Greetings! Marcin Dziadowiec PL-VACC